sensor_id;sensor_type;location;lat;lon;timestamp;temperature;humidity
23683;DHT22;24897;53.514;10.482;2023-05-29T00:01:54;12.70;99.90
23683;DHT22;24897;53.514;10.482;2023-05-29T00:04:39;12.70;99.90
23683;DHT22;24897;53.514;10.482;2023-05-29T00:07:24;12.60;99.90
23683;DHT22;24897;53.514;10.482;2023-05-29T00:10:10;12.50;99.90
23683;DHT22;24897;53.514;10.482;2023-05-29T00:12:54;12.50;99.90
23683;DHT22;24897;53.514;10.482;2023-05-29T00:15:40;12.50;99.90
23683;DHT22;24897;53.514;10.482;2023-05-29T00:18:24;12.50;99.90
23683;DHT22;24897;53.514;10.482;2023-05-29T00:21:08;12.50;99.90
23683;DHT22;24897;53.514;10.482;2023-05-29T00:23:53;12.50;99.90
23683;DHT22;24897;53.514;10.482;2023-05-29T00:26:36;12.50;99.90
23683;DHT22;24897;53.514;10.482;2023-05-29T00:29:21;12.40;99.90
23683;DHT22;24897;53.514;10.482;2023-05-29T00:32:06;12.50;99.90
23683;DHT22;24897;53.514;10.482;2023-05-29T00:34:50;12.50;99.90
23683;DHT22;24897;53.514;10.482;2023-05-29T00:37:35;12.50;99.90
23683;DHT22;24897;53.514;10.482;2023-05-29T00:40:22;12.50;99.90
23683;DHT22;24897;53.514;10.482;2023-05-29T00:43:07;12.60;99.90
23683;DHT22;24897;53.514;10.482;2023-05-29T00:45:51;12.50;99.90
23683;DHT22;24897;53.514;10.482;2023-05-29T00:48:35;12.60;99.90
23683;DHT22;24897;53.514;10.482;2023-05-29T00:51:20;12.50;99.90
23683;DHT22;24897;53.514;10.482;2023-05-29T00:54:08;12.50;99.90
23683;DHT22;24897;53.514;10.482;2023-05-29T00:56:55;12.50;99.90
23683;DHT22;24897;53.514;10.482;2023-05-29T00:59:41;12.60;99.90
23683;DHT22;24897;53.514;10.482;2023-05-29T01:02:28;12.50;99.90
23683;DHT22;24897;53.514;10.482;2023-05-29T01:05:14;12.50;99.90
23683;DHT22;24897;53.514;10.482;2023-05-29T01:07:59;12.40;99.90
23683;DHT22;24897;53.514;10.482;2023-05-29T01:10:44;12.40;99.90
23683;DHT22;24897;53.514;10.482;2023-05-29T01:13:30;12.30;99.90
23683;DHT22;24897;53.514;10.482;2023-05-29T01:16:24;12.20;99.90
23683;DHT22;24897;53.514;10.482;2023-05-29T01:19:27;12.20;99.90
23683;DHT22;24897;53.514;10.482;2023-05-29T01:28:19;12.10;99.90
23683;DHT22;24897;53.514;10.482;2023-05-29T01:31:07;12.00;99.90
23683;DHT22;24897;53.514;10.482;2023-05-29T01:33:56;11.90;99.90
23683;DHT22;24897;53.514;10.482;2023-05-29T01:36:40;11.90;99.90
23683;DHT22;24897;53.514;10.482;2023-05-29T01:39:26;11.80;99.90
23683;DHT22;24897;53.514;10.482;2023-05-29T01:42:12;11.80;99.90
23683;DHT22;24897;53.514;10.482;2023-05-29T01:44:57;11.60;99.90
23683;DHT22;24897;53.514;10.482;2023-05-29T01:47:42;11.60;99.90
23683;DHT22;24897;53.514;10.482;2023-05-29T01:50:27;11.50;99.90
23683;DHT22;24897;53.514;10.482;2023-05-29T01:53:12;11.40;99.90
23683;DHT22;24897;53.514;10.482;2023-05-29T01:55:56;11.30;99.90
23683;DHT22;24897;53.514;10.482;2023-05-29T01:58:42;11.30;99.90
23683;DHT22;24897;53.514;10.482;2023-05-29T02:01:27;11.20;99.90
23683;DHT22;24897;53.514;10.482;2023-05-29T02:04:11;11.10;99.90
23683;DHT22;24897;53.514;10.482;2023-05-29T02:06:55;11.00;99.90
23683;DHT22;24897;53.514;10.482;2023-05-29T02:09:39;10.90;99.90
23683;DHT22;24897;53.514;10.482;2023-05-29T02:12:23;10.90;99.90
23683;DHT22;24897;53.514;10.482;2023-05-29T02:15:08;10.80;99.90
23683;DHT22;24897;53.514;10.482;2023-05-29T02:17:52;10.70;99.90
23683;DHT22;24897;53.514;10.482;2023-05-29T02:20:36;10.70;99.90
23683;DHT22;24897;53.514;10.482;2023-05-29T02:23:20;10.60;99.90
23683;DHT22;24897;53.514;10.482;2023-05-29T02:26:05;10.60;99.90
23683;DHT22;24897;53.514;10.482;2023-05-29T02:28:49;10.50;99.90
23683;DHT22;24897;53.514;10.482;2023-05-29T02:31:34;10.40;99.90
23683;DHT22;24897;53.514;10.482;2023-05-29T02:34:18;10.40;99.90
23683;DHT22;24897;53.514;10.482;2023-05-29T02:37:02;10.30;99.90
23683;DHT22;24897;53.514;10.482;2023-05-29T02:39:46;10.30;99.90
23683;DHT22;24897;53.514;10.482;2023-05-29T02:42:30;10.30;99.90
23683;DHT22;24897;53.514;10.482;2023-05-29T02:45:15;10.20;99.90
23683;DHT22;24897;53.514;10.482;2023-05-29T02:47:59;10.20;99.90
23683;DHT22;24897;53.514;10.482;2023-05-29T02:50:43;10.10;99.90
23683;DHT22;24897;53.514;10.482;2023-05-29T02:53:28;10.10;99.90
23683;DHT22;24897;53.514;10.482;2023-05-29T02:56:12;10.10;99.90
23683;DHT22;24897;53.514;10.482;2023-05-29T02:58:56;10.10;99.90
23683;DHT22;24897;53.514;10.482;2023-05-29T03:01:40;10.00;99.90
23683;DHT22;24897;53.514;10.482;2023-05-29T03:04:26;10.00;99.90
23683;DHT22;24897;53.514;10.482;2023-05-29T03:07:11;10.00;99.90
23683;DHT22;24897;53.514;10.482;2023-05-29T03:09:56;10.00;99.90
23683;DHT22;24897;53.514;10.482;2023-05-29T03:12:40;10.00;99.90
23683;DHT22;24897;53.514;10.482;2023-05-29T03:15:25;10.00;99.90
23683;DHT22;24897;53.514;10.482;2023-05-29T03:18:09;9.90;99.90
23683;DHT22;24897;53.514;10.482;2023-05-29T03:20:53;9.90;99.90
23683;DHT22;24897;53.514;10.482;2023-05-29T03:23:38;9.90;99.90
23683;DHT22;24897;53.514;10.482;2023-05-29T03:26:22;9.90;99.90
23683;DHT22;24897;53.514;10.482;2023-05-29T03:29:06;10.00;99.90
23683;DHT22;24897;53.514;10.482;2023-05-29T03:31:51;10.10;99.90
23683;DHT22;24897;53.514;10.482;2023-05-29T03:34:35;10.20;99.90
23683;DHT22;24897;53.514;10.482;2023-05-29T03:37:19;10.50;99.90
23683;DHT22;24897;53.514;10.482;2023-05-29T03:40:04;10.80;99.90
23683;DHT22;24897;53.514;10.482;2023-05-29T03:42:48;11.00;99.90
23683;DHT22;24897;53.514;10.482;2023-05-29T03:45:32;11.40;99.90
23683;DHT22;24897;53.514;10.482;2023-05-29T03:48:16;11.70;99.90
23683;DHT22;24897;53.514;10.482;2023-05-29T03:51:00;12.00;99.90
23683;DHT22;24897;53.514;10.482;2023-05-29T03:53:44;12.50;99.90
23683;DHT22;24897;53.514;10.482;2023-05-29T03:56:29;12.70;99.90
23683;DHT22;24897;53.514;10.482;2023-05-29T03:59:14;13.10;99.90
23683;DHT22;24897;53.514;10.482;2023-05-29T04:01:58;13.10;99.90
23683;DHT22;24897;53.514;10.482;2023-05-29T04:04:43;13.40;99.90
23683;DHT22;24897;53.514;10.482;2023-05-29T04:07:27;13.60;99.90
23683;DHT22;24897;53.514;10.482;2023-05-29T04:10:12;13.70;99.90
23683;DHT22;24897;53.514;10.482;2023-05-29T04:12:56;14.00;99.90
23683;DHT22;24897;53.514;10.482;2023-05-29T04:15:40;14.50;99.90
23683;DHT22;24897;53.514;10.482;2023-05-29T04:18:25;14.70;99.90
23683;DHT22;24897;53.514;10.482;2023-05-29T04:21:10;15.30;99.90
23683;DHT22;24897;53.514;10.482;2023-05-29T04:23:55;15.70;99.90
23683;DHT22;24897;53.514;10.482;2023-05-29T04:26:39;16.30;99.90
23683;DHT22;24897;53.514;10.482;2023-05-29T04:29:25;16.10;99.90
23683;DHT22;24897;53.514;10.482;2023-05-29T04:32:10;16.20;99.90
23683;DHT22;24897;53.514;10.482;2023-05-29T04:34:55;16.30;99.90
23683;DHT22;24897;53.514;10.482;2023-05-29T04:37:39;16.10;99.90
23683;DHT22;24897;53.514;10.482;2023-05-29T04:40:23;15.90;99.90
23683;DHT22;24897;53.514;10.482;2023-05-29T04:43:07;15.50;99.90
23683;DHT22;24897;53.514;10.482;2023-05-29T04:45:57;15.80;99.90
23683;DHT22;24897;53.514;10.482;2023-05-29T04:48:42;16.10;99.90
23683;DHT22;24897;53.514;10.482;2023-05-29T04:51:27;16.80;99.90
23683;DHT22;24897;53.514;10.482;2023-05-29T04:54:12;17.00;99.90
23683;DHT22;24897;53.514;10.482;2023-05-29T04:56:56;17.30;99.90
23683;DHT22;24897;53.514;10.482;2023-05-29T04:59:40;18.00;99.90
23683;DHT22;24897;53.514;10.482;2023-05-29T05:02:24;18.30;99.90
23683;DHT22;24897;53.514;10.482;2023-05-29T05:05:09;18.40;99.90
23683;DHT22;24897;53.514;10.482;2023-05-29T05:07:53;18.80;99.90
23683;DHT22;24897;53.514;10.482;2023-05-29T05:10:37;19.30;99.90
23683;DHT22;24897;53.514;10.482;2023-05-29T05:13:21;19.60;99.90
23683;DHT22;24897;53.514;10.482;2023-05-29T05:16:05;19.80;99.90
23683;DHT22;24897;53.514;10.482;2023-05-29T05:18:50;19.70;99.90
23683;DHT22;24897;53.514;10.482;2023-05-29T05:21:34;19.40;99.90
23683;DHT22;24897;53.514;10.482;2023-05-29T05:24:19;19.10;99.90
23683;DHT22;24897;53.514;10.482;2023-05-29T05:27:04;19.10;99.90
23683;DHT22;24897;53.514;10.482;2023-05-29T05:29:49;18.80;99.90
23683;DHT22;24897;53.514;10.482;2023-05-29T05:32:34;18.80;99.90
23683;DHT22;24897;53.514;10.482;2023-05-29T05:35:19;19.30;99.90
23683;DHT22;24897;53.514;10.482;2023-05-29T05:38:03;19.00;99.90
23683;DHT22;24897;53.514;10.482;2023-05-29T05:40:48;19.70;99.90
23683;DHT22;24897;53.514;10.482;2023-05-29T05:43:32;19.70;99.90
23683;DHT22;24897;53.514;10.482;2023-05-29T05:46:16;19.70;99.90
23683;DHT22;24897;53.514;10.482;2023-05-29T05:49:01;19.40;99.90
23683;DHT22;24897;53.514;10.482;2023-05-29T05:51:45;18.90;99.90
23683;DHT22;24897;53.514;10.482;2023-05-29T05:54:29;18.90;99.90
23683;DHT22;24897;53.514;10.482;2023-05-29T05:57:14;19.10;99.90
23683;DHT22;24897;53.514;10.482;2023-05-29T06:00:04;19.40;99.90
23683;DHT22;24897;53.514;10.482;2023-05-29T06:02:55;19.80;99.90
23683;DHT22;24897;53.514;10.482;2023-05-29T06:05:39;20.40;99.90
23683;DHT22;24897;53.514;10.482;2023-05-29T06:08:25;20.90;99.90
23683;DHT22;24897;53.514;10.482;2023-05-29T06:11:09;22.10;99.90
23683;DHT22;24897;53.514;10.482;2023-05-29T06:13:53;22.50;99.90
23683;DHT22;24897;53.514;10.482;2023-05-29T06:16:37;23.30;99.90
23683;DHT22;24897;53.514;10.482;2023-05-29T06:19:21;23.50;99.90
23683;DHT22;24897;53.514;10.482;2023-05-29T06:22:06;24.00;99.90
23683;DHT22;24897;53.514;10.482;2023-05-29T06:24:50;25.10;99.90
23683;DHT22;24897;53.514;10.482;2023-05-29T06:27:34;25.50;99.90
23683;DHT22;24897;53.514;10.482;2023-05-29T06:30:19;25.20;99.90
23683;DHT22;24897;53.514;10.482;2023-05-29T06:33:03;24.60;99.90
23683;DHT22;24897;53.514;10.482;2023-05-29T06:35:48;24.10;99.90
23683;DHT22;24897;53.514;10.482;2023-05-29T06:38:33;23.60;99.90
23683;DHT22;24897;53.514;10.482;2023-05-29T06:41:17;24.00;99.90
23683;DHT22;24897;53.514;10.482;2023-05-29T06:44:02;23.60;99.90
23683;DHT22;24897;53.514;10.482;2023-05-29T06:46:46;23.20;99.90
23683;DHT22;24897;53.514;10.482;2023-05-29T06:49:31;22.50;99.90
23683;DHT22;24897;53.514;10.482;2023-05-29T06:52:14;21.10;99.90
23683;DHT22;24897;53.514;10.482;2023-05-29T06:54:59;20.00;99.90
23683;DHT22;24897;53.514;10.482;2023-05-29T06:57:43;19.70;99.90
23683;DHT22;24897;53.514;10.482;2023-05-29T07:00:27;20.40;99.90
23683;DHT22;24897;53.514;10.482;2023-05-29T07:03:12;21.50;99.90
23683;DHT22;24897;53.514;10.482;2023-05-29T07:05:56;22.80;99.90
23683;DHT22;24897;53.514;10.482;2023-05-29T07:08:40;22.10;99.90
23683;DHT22;24897;53.514;10.482;2023-05-29T07:11:24;21.70;99.90
23683;DHT22;24897;53.514;10.482;2023-05-29T07:14:10;22.30;99.90
23683;DHT22;24897;53.514;10.482;2023-05-29T07:16:54;23.00;99.90
23683;DHT22;24897;53.514;10.482;2023-05-29T07:19:38;22.40;99.90
23683;DHT22;24897;53.514;10.482;2023-05-29T07:22:22;22.00;99.90
23683;DHT22;24897;53.514;10.482;2023-05-29T07:25:06;22.60;99.90
23683;DHT22;24897;53.514;10.482;2023-05-29T07:27:51;22.70;99.90
23683;DHT22;24897;53.514;10.482;2023-05-29T07:30:35;22.90;99.90
23683;DHT22;24897;53.514;10.482;2023-05-29T07:33:19;22.90;99.90
23683;DHT22;24897;53.514;10.482;2023-05-29T07:36:04;22.80;99.90
23683;DHT22;24897;53.514;10.482;2023-05-29T07:38:48;22.80;99.90
23683;DHT22;24897;53.514;10.482;2023-05-29T07:41:33;22.30;99.90
23683;DHT22;24897;53.514;10.482;2023-05-29T07:44:17;21.80;99.90
23683;DHT22;24897;53.514;10.482;2023-05-29T07:47:01;21.60;99.90
23683;DHT22;24897;53.514;10.482;2023-05-29T07:49:45;21.30;99.90
23683;DHT22;24897;53.514;10.482;2023-05-29T07:52:29;21.20;99.90
23683;DHT22;24897;53.514;10.482;2023-05-29T07:55:13;20.60;99.90
23683;DHT22;24897;53.514;10.482;2023-05-29T07:57:57;19.80;99.90
23683;DHT22;24897;53.514;10.482;2023-05-29T08:00:44;19.60;99.90
23683;DHT22;24897;53.514;10.482;2023-05-29T08:03:28;20.10;99.90
23683;DHT22;24897;53.514;10.482;2023-05-29T08:06:14;20.60;99.90
23683;DHT22;24897;53.514;10.482;2023-05-29T08:08:58;20.70;99.90
23683;DHT22;24897;53.514;10.482;2023-05-29T08:11:43;20.30;99.90
23683;DHT22;24897;53.514;10.482;2023-05-29T08:14:29;20.10;99.90
23683;DHT22;24897;53.514;10.482;2023-05-29T08:17:13;19.80;99.90
23683;DHT22;24897;53.514;10.482;2023-05-29T08:19:57;20.20;99.90
23683;DHT22;24897;53.514;10.482;2023-05-29T08:22:41;20.40;99.90
23683;DHT22;24897;53.514;10.482;2023-05-29T08:25:25;20.70;99.90
23683;DHT22;24897;53.514;10.482;2023-05-29T08:28:09;20.50;99.90
23683;DHT22;24897;53.514;10.482;2023-05-29T08:30:54;21.00;99.90
23683;DHT22;24897;53.514;10.482;2023-05-29T08:33:38;21.20;99.90
23683;DHT22;24897;53.514;10.482;2023-05-29T08:36:25;21.10;99.90
23683;DHT22;24897;53.514;10.482;2023-05-29T08:39:09;21.10;99.90
23683;DHT22;24897;53.514;10.482;2023-05-29T08:41:57;20.80;99.90
23683;DHT22;24897;53.514;10.482;2023-05-29T08:44:47;21.10;99.90
23683;DHT22;24897;53.514;10.482;2023-05-29T08:47:33;20.60;99.90
23683;DHT22;24897;53.514;10.482;2023-05-29T08:50:20;19.90;99.90
23683;DHT22;24897;53.514;10.482;2023-05-29T08:53:05;19.80;99.90
23683;DHT22;24897;53.514;10.482;2023-05-29T08:55:50;19.80;99.90
23683;DHT22;24897;53.514;10.482;2023-05-29T08:58:37;20.00;99.90
23683;DHT22;24897;53.514;10.482;2023-05-29T09:01:23;20.40;99.90
23683;DHT22;24897;53.514;10.482;2023-05-29T09:04:09;20.70;99.90
23683;DHT22;24897;53.514;10.482;2023-05-29T09:06:53;21.00;99.90
23683;DHT22;24897;53.514;10.482;2023-05-29T09:09:39;21.30;99.90
23683;DHT22;24897;53.514;10.482;2023-05-29T09:12:23;21.50;99.90
23683;DHT22;24897;53.514;10.482;2023-05-29T09:15:17;21.80;99.90
23683;DHT22;24897;53.514;10.482;2023-05-29T09:18:03;21.50;99.90
23683;DHT22;24897;53.514;10.482;2023-05-29T09:20:48;20.90;99.90
23683;DHT22;24897;53.514;10.482;2023-05-29T09:23:32;20.30;99.90
23683;DHT22;24897;53.514;10.482;2023-05-29T09:26:17;20.60;99.90
23683;DHT22;24897;53.514;10.482;2023-05-29T09:29:02;20.50;99.90
23683;DHT22;24897;53.514;10.482;2023-05-29T09:31:46;20.60;99.90
23683;DHT22;24897;53.514;10.482;2023-05-29T09:34:31;20.80;99.90
23683;DHT22;24897;53.514;10.482;2023-05-29T09:37:15;21.40;99.90
23683;DHT22;24897;53.514;10.482;2023-05-29T09:40:06;21.80;99.90
23683;DHT22;24897;53.514;10.482;2023-05-29T09:42:51;21.60;99.90
23683;DHT22;24897;53.514;10.482;2023-05-29T09:45:43;21.70;99.90
23683;DHT22;24897;53.514;10.482;2023-05-29T09:48:27;22.10;99.90
23683;DHT22;24897;53.514;10.482;2023-05-29T09:51:22;22.10;99.90
23683;DHT22;24897;53.514;10.482;2023-05-29T09:54:16;22.20;99.90
23683;DHT22;24897;53.514;10.482;2023-05-29T09:57:01;22.30;99.90
23683;DHT22;24897;53.514;10.482;2023-05-29T09:59:46;22.60;99.90
23683;DHT22;24897;53.514;10.482;2023-05-29T10:02:32;23.00;99.90
23683;DHT22;24897;53.514;10.482;2023-05-29T10:05:17;22.70;99.90
23683;DHT22;24897;53.514;10.482;2023-05-29T10:08:02;22.30;99.90
23683;DHT22;24897;53.514;10.482;2023-05-29T10:11:02;21.90;99.90
23683;DHT22;24897;53.514;10.482;2023-05-29T10:13:48;21.90;99.90
23683;DHT22;24897;53.514;10.482;2023-05-29T10:16:34;22.10;99.90
23683;DHT22;24897;53.514;10.482;2023-05-29T10:19:28;22.10;99.90
23683;DHT22;24897;53.514;10.482;2023-05-29T10:22:13;22.40;99.90
23683;DHT22;24897;53.514;10.482;2023-05-29T10:24:58;22.20;99.90
23683;DHT22;24897;53.514;10.482;2023-05-29T10:27:44;22.20;99.90
23683;DHT22;24897;53.514;10.482;2023-05-29T10:30:37;22.60;99.90
23683;DHT22;24897;53.514;10.482;2023-05-29T10:36:22;22.30;99.90
23683;DHT22;24897;53.514;10.482;2023-05-29T10:39:08;22.40;99.90
23683;DHT22;24897;53.514;10.482;2023-05-29T10:41:52;22.60;99.90
23683;DHT22;24897;53.514;10.482;2023-05-29T10:44:39;22.90;99.90
23683;DHT22;24897;53.514;10.482;2023-05-29T10:47:24;23.10;99.90
23683;DHT22;24897;53.514;10.482;2023-05-29T10:50:09;23.30;99.90
23683;DHT22;24897;53.514;10.482;2023-05-29T10:52:56;23.40;99.90
23683;DHT22;24897;53.514;10.482;2023-05-29T10:55:41;23.60;99.90
23683;DHT22;24897;53.514;10.482;2023-05-29T10:58:26;23.40;99.90
23683;DHT22;24897;53.514;10.482;2023-05-29T11:01:11;23.30;99.90
23683;DHT22;24897;53.514;10.482;2023-05-29T11:07:01;23.10;99.90
23683;DHT22;24897;53.514;10.482;2023-05-29T11:09:49;22.90;99.90
23683;DHT22;24897;53.514;10.482;2023-05-29T11:12:56;23.10;99.90
23683;DHT22;24897;53.514;10.482;2023-05-29T11:15:40;23.30;99.90
23683;DHT22;24897;53.514;10.482;2023-05-29T11:18:24;23.30;99.90
23683;DHT22;24897;53.514;10.482;2023-05-29T11:24:22;23.10;99.90
23683;DHT22;24897;53.514;10.482;2023-05-29T11:27:07;22.40;99.90
23683;DHT22;24897;53.514;10.482;2023-05-29T11:29:52;22.10;99.90
23683;DHT22;24897;53.514;10.482;2023-05-29T11:32:41;22.40;99.90
23683;DHT22;24897;53.514;10.482;2023-05-29T11:35:29;23.10;99.90
23683;DHT22;24897;53.514;10.482;2023-05-29T11:38:15;23.30;99.90
23683;DHT22;24897;53.514;10.482;2023-05-29T11:41:04;23.40;99.90
23683;DHT22;24897;53.514;10.482;2023-05-29T11:43:59;23.30;99.90
23683;DHT22;24897;53.514;10.482;2023-05-29T11:46:45;23.50;99.90
23683;DHT22;24897;53.514;10.482;2023-05-29T11:49:33;24.00;99.90
23683;DHT22;24897;53.514;10.482;2023-05-29T11:52:17;24.20;99.90
23683;DHT22;24897;53.514;10.482;2023-05-29T11:55:07;24.50;99.90
23683;DHT22;24897;53.514;10.482;2023-05-29T11:58:04;24.10;99.90
23683;DHT22;24897;53.514;10.482;2023-05-29T12:00:49;23.80;99.90
23683;DHT22;24897;53.514;10.482;2023-05-29T12:03:40;23.60;99.90
23683;DHT22;24897;53.514;10.482;2023-05-29T12:06:35;24.00;99.90
23683;DHT22;24897;53.514;10.482;2023-05-29T12:09:29;24.20;99.90
23683;DHT22;24897;53.514;10.482;2023-05-29T12:12:15;24.00;99.90
23683;DHT22;24897;53.514;10.482;2023-05-29T12:14:59;23.70;99.90
23683;DHT22;24897;53.514;10.482;2023-05-29T12:17:46;23.30;99.90
23683;DHT22;24897;53.514;10.482;2023-05-29T12:20:30;22.40;99.90
23683;DHT22;24897;53.514;10.482;2023-05-29T12:23:15;22.30;99.90
23683;DHT22;24897;53.514;10.482;2023-05-29T12:26:05;22.50;99.90
23683;DHT22;24897;53.514;10.482;2023-05-29T12:28:50;22.90;99.90
23683;DHT22;24897;53.514;10.482;2023-05-29T12:31:36;23.10;99.90
23683;DHT22;24897;53.514;10.482;2023-05-29T12:34:20;23.50;99.90
23683;DHT22;24897;53.514;10.482;2023-05-29T12:37:09;23.40;99.90
23683;DHT22;24897;53.514;10.482;2023-05-29T12:40:14;23.50;99.90
23683;DHT22;24897;53.514;10.482;2023-05-29T12:43:06;23.70;99.90
23683;DHT22;24897;53.514;10.482;2023-05-29T12:45:56;23.60;99.90
23683;DHT22;24897;53.514;10.482;2023-05-29T12:48:40;23.60;99.90
23683;DHT22;24897;53.514;10.482;2023-05-29T12:51:28;23.80;99.90
23683;DHT22;24897;53.514;10.482;2023-05-29T12:54:14;23.80;99.90
23683;DHT22;24897;53.514;10.482;2023-05-29T12:56:59;23.80;99.90
23683;DHT22;24897;53.514;10.482;2023-05-29T12:59:45;23.50;99.90
23683;DHT22;24897;53.514;10.482;2023-05-29T13:02:29;23.40;99.90
23683;DHT22;24897;53.514;10.482;2023-05-29T13:05:13;23.30;99.90
23683;DHT22;24897;53.514;10.482;2023-05-29T13:07:59;23.30;99.90
23683;DHT22;24897;53.514;10.482;2023-05-29T13:10:44;23.10;99.90
23683;DHT22;24897;53.514;10.482;2023-05-29T13:13:29;22.80;99.90
23683;DHT22;24897;53.514;10.482;2023-05-29T13:16:13;22.70;99.90
23683;DHT22;24897;53.514;10.482;2023-05-29T13:18:57;22.60;99.90
23683;DHT22;24897;53.514;10.482;2023-05-29T13:21:41;22.70;99.90
23683;DHT22;24897;53.514;10.482;2023-05-29T13:24:31;22.90;99.90
23683;DHT22;24897;53.514;10.482;2023-05-29T13:27:15;23.10;99.90
23683;DHT22;24897;53.514;10.482;2023-05-29T13:30:00;22.70;99.90
23683;DHT22;24897;53.514;10.482;2023-05-29T13:32:45;22.70;99.90
23683;DHT22;24897;53.514;10.482;2023-05-29T13:35:29;22.80;99.90
23683;DHT22;24897;53.514;10.482;2023-05-29T13:38:13;22.80;99.90
23683;DHT22;24897;53.514;10.482;2023-05-29T13:40:57;22.70;99.90
23683;DHT22;24897;53.514;10.482;2023-05-29T13:43:41;22.70;99.90
23683;DHT22;24897;53.514;10.482;2023-05-29T13:46:25;22.60;99.90
23683;DHT22;24897;53.514;10.482;2023-05-29T13:49:10;22.90;99.90
23683;DHT22;24897;53.514;10.482;2023-05-29T13:51:54;23.00;99.90
23683;DHT22;24897;53.514;10.482;2023-05-29T13:54:39;22.80;99.90
23683;DHT22;24897;53.514;10.482;2023-05-29T13:57:24;23.00;99.90
23683;DHT22;24897;53.514;10.482;2023-05-29T14:00:09;23.20;99.90
23683;DHT22;24897;53.514;10.482;2023-05-29T14:02:54;23.20;99.90
23683;DHT22;24897;53.514;10.482;2023-05-29T14:05:38;23.20;99.90
23683;DHT22;24897;53.514;10.482;2023-05-29T14:08:22;23.10;99.90
23683;DHT22;24897;53.514;10.482;2023-05-29T14:11:06;23.10;99.90
23683;DHT22;24897;53.514;10.482;2023-05-29T14:13:50;23.30;99.90
23683;DHT22;24897;53.514;10.482;2023-05-29T14:16:34;23.60;99.90
23683;DHT22;24897;53.514;10.482;2023-05-29T14:19:19;23.70;99.90
23683;DHT22;24897;53.514;10.482;2023-05-29T14:22:04;23.60;99.90
23683;DHT22;24897;53.514;10.482;2023-05-29T14:24:48;23.40;99.90
23683;DHT22;24897;53.514;10.482;2023-05-29T14:27:32;23.50;99.90
23683;DHT22;24897;53.514;10.482;2023-05-29T14:30:18;23.50;99.90
23683;DHT22;24897;53.514;10.482;2023-05-29T14:33:03;23.60;99.90
23683;DHT22;24897;53.514;10.482;2023-05-29T14:35:47;23.60;99.90
23683;DHT22;24897;53.514;10.482;2023-05-29T14:38:31;23.50;99.90
23683;DHT22;24897;53.514;10.482;2023-05-29T14:41:16;23.40;99.90
23683;DHT22;24897;53.514;10.482;2023-05-29T14:44:00;23.00;99.90
23683;DHT22;24897;53.514;10.482;2023-05-29T14:46:44;23.00;99.90
23683;DHT22;24897;53.514;10.482;2023-05-29T14:49:28;23.20;99.90
23683;DHT22;24897;53.514;10.482;2023-05-29T14:52:16;23.30;99.90
23683;DHT22;24897;53.514;10.482;2023-05-29T14:55:04;23.10;99.90
23683;DHT22;24897;53.514;10.482;2023-05-29T14:57:48;22.80;99.90
23683;DHT22;24897;53.514;10.482;2023-05-29T15:00:32;22.80;99.90
23683;DHT22;24897;53.514;10.482;2023-05-29T15:03:17;22.80;99.90
23683;DHT22;24897;53.514;10.482;2023-05-29T15:06:04;23.00;99.90
23683;DHT22;24897;53.514;10.482;2023-05-29T15:08:50;23.10;99.90
23683;DHT22;24897;53.514;10.482;2023-05-29T15:11:35;23.30;99.90
23683;DHT22;24897;53.514;10.482;2023-05-29T15:14:19;23.50;99.90
23683;DHT22;24897;53.514;10.482;2023-05-29T15:17:04;23.40;99.90
23683;DHT22;24897;53.514;10.482;2023-05-29T15:19:48;23.30;99.90
23683;DHT22;24897;53.514;10.482;2023-05-29T15:22:32;23.30;99.90
23683;DHT22;24897;53.514;10.482;2023-05-29T15:25:17;23.30;99.90
23683;DHT22;24897;53.514;10.482;2023-05-29T15:28:02;23.40;99.90
23683;DHT22;24897;53.514;10.482;2023-05-29T15:30:47;23.50;99.90
23683;DHT22;24897;53.514;10.482;2023-05-29T15:33:31;23.40;99.90
23683;DHT22;24897;53.514;10.482;2023-05-29T15:36:15;23.40;99.90
23683;DHT22;24897;53.514;10.482;2023-05-29T15:39:04;23.20;99.90
23683;DHT22;24897;53.514;10.482;2023-05-29T15:41:49;23.10;99.90
23683;DHT22;24897;53.514;10.482;2023-05-29T15:44:33;23.30;99.90
23683;DHT22;24897;53.514;10.482;2023-05-29T15:47:19;23.40;99.90
23683;DHT22;24897;53.514;10.482;2023-05-29T15:50:04;23.50;99.90
23683;DHT22;24897;53.514;10.482;2023-05-29T15:52:48;23.30;99.90
23683;DHT22;24897;53.514;10.482;2023-05-29T15:55:33;23.30;99.90
23683;DHT22;24897;53.514;10.482;2023-05-29T15:58:17;23.30;99.90
23683;DHT22;24897;53.514;10.482;2023-05-29T16:01:02;23.20;99.90
23683;DHT22;24897;53.514;10.482;2023-05-29T16:03:46;23.10;99.90
23683;DHT22;24897;53.514;10.482;2023-05-29T16:06:30;23.00;99.90
23683;DHT22;24897;53.514;10.482;2023-05-29T16:09:16;22.90;99.90
23683;DHT22;24897;53.514;10.482;2023-05-29T16:12:00;22.90;99.90
23683;DHT22;24897;53.514;10.482;2023-05-29T16:14:46;23.00;99.90
23683;DHT22;24897;53.514;10.482;2023-05-29T16:17:30;22.90;99.90
23683;DHT22;24897;53.514;10.482;2023-05-29T16:20:15;23.00;99.90
23683;DHT22;24897;53.514;10.482;2023-05-29T16:22:59;23.10;99.90
23683;DHT22;24897;53.514;10.482;2023-05-29T16:25:43;23.20;99.90
23683;DHT22;24897;53.514;10.482;2023-05-29T16:28:27;23.10;99.90
23683;DHT22;24897;53.514;10.482;2023-05-29T16:31:11;23.00;99.90
23683;DHT22;24897;53.514;10.482;2023-05-29T16:33:55;23.10;99.90
23683;DHT22;24897;53.514;10.482;2023-05-29T16:36:40;23.20;99.90
23683;DHT22;24897;53.514;10.482;2023-05-29T16:39:24;23.20;99.90
23683;DHT22;24897;53.514;10.482;2023-05-29T16:42:11;23.20;99.90
23683;DHT22;24897;53.514;10.482;2023-05-29T16:44:55;22.90;99.90
23683;DHT22;24897;53.514;10.482;2023-05-29T16:47:39;22.60;99.90
23683;DHT22;24897;53.514;10.482;2023-05-29T16:50:23;22.40;99.90
23683;DHT22;24897;53.514;10.482;2023-05-29T16:53:07;22.30;99.90
23683;DHT22;24897;53.514;10.482;2023-05-29T16:55:51;22.50;99.90
23683;DHT22;24897;53.514;10.482;2023-05-29T16:58:36;22.30;99.90
23683;DHT22;24897;53.514;10.482;2023-05-29T17:01:20;22.10;99.90
23683;DHT22;24897;53.514;10.482;2023-05-29T17:04:05;22.00;99.90
23683;DHT22;24897;53.514;10.482;2023-05-29T17:06:51;22.00;99.90
23683;DHT22;24897;53.514;10.482;2023-05-29T17:09:35;22.00;99.90
23683;DHT22;24897;53.514;10.482;2023-05-29T17:12:19;21.70;99.90
23683;DHT22;24897;53.514;10.482;2023-05-29T17:15:03;21.50;99.90
23683;DHT22;24897;53.514;10.482;2023-05-29T17:17:48;21.40;99.90
23683;DHT22;24897;53.514;10.482;2023-05-29T17:20:32;21.30;99.90
23683;DHT22;24897;53.514;10.482;2023-05-29T17:23:16;21.30;99.90